sensor_id;sensor_type;location;lat;lon;timestamp;pressure;altitude;pressure_sealevel;temperature;humidity
55317;BME280;41178;48.956;8.130;2023-02-17T00:00:22;100540.28;;;8.42;48.99
55317;BME280;41178;48.956;8.130;2023-02-17T00:05:25;100522.94;;;8.28;48.84
55317;BME280;41178;48.956;8.130;2023-02-17T00:10:27;100523.41;;;8.24;48.65
55317;BME280;41178;48.956;8.130;2023-02-17T00:15:28;100522.75;;;8.58;48.42
55317;BME280;41178;48.956;8.130;2023-02-17T00:20:30;100500.47;;;7.58;49.88
55317;BME280;41178;48.956;8.130;2023-02-17T00:25:32;100533.53;;;8.38;49.05
55317;BME280;41178;48.956;8.130;2023-02-17T00:30:34;100513.09;;;8.11;49.07
55317;BME280;41178;48.956;8.130;2023-02-17T00:35:40;100511.50;;;8.18;48.83
55317;BME280;41178;48.956;8.130;2023-02-17T00:40:42;100518.31;;;8.48;48.10
55317;BME280;41178;48.956;8.130;2023-02-17T00:45:45;100529.94;;;8.83;47.29
55317;BME280;41178;48.956;8.130;2023-02-17T00:50:47;100517.28;;;8.85;47.70
55317;BME280;41178;48.956;8.130;2023-02-17T00:55:49;100505.09;;;7.55;49.07
55317;BME280;41178;48.956;8.130;2023-02-17T01:00:51;100525.50;;;8.02;49.06
55317;BME280;41178;48.956;8.130;2023-02-17T01:05:54;100513.47;;;7.98;48.96
55317;BME280;41178;48.956;8.130;2023-02-17T01:10:56;100533.81;;;7.99;48.74
55317;BME280;41178;48.956;8.130;2023-02-17T01:15:57;100547.81;;;8.01;48.37
55317;BME280;41178;48.956;8.130;2023-02-17T01:20:59;100534.44;;;8.11;48.84
55317;BME280;41178;48.956;8.130;2023-02-17T01:26:01;100526.63;;;8.00;48.50
55317;BME280;41178;48.956;8.130;2023-02-17T01:31:07;100519.38;;;8.56;47.91
55317;BME280;41178;48.956;8.130;2023-02-17T01:36:12;100503.50;;;8.00;47.96
55317;BME280;41178;48.956;8.130;2023-02-17T01:41:17;100514.69;;;8.04;48.25
55317;BME280;41178;48.956;8.130;2023-02-17T01:46:19;100501.06;;;7.79;48.71
55317;BME280;41178;48.956;8.130;2023-02-17T01:51:24;100501.41;;;8.84;47.92
55317;BME280;41178;48.956;8.130;2023-02-17T01:56:29;100475.28;;;7.80;48.70
55317;BME280;41178;48.956;8.130;2023-02-17T02:01:32;100495.03;;;8.05;48.13
55317;BME280;41178;48.956;8.130;2023-02-17T02:06:35;100519.75;;;8.43;48.92
55317;BME280;41178;48.956;8.130;2023-02-17T02:11:38;100496.44;;;8.45;49.12
55317;BME280;41178;48.956;8.130;2023-02-17T02:38:02;100446.19;;;8.58;50.99
55317;BME280;41178;48.956;8.130;2023-02-17T02:42:55;100438.03;;;8.60;52.24
55317;BME280;41178;48.956;8.130;2023-02-17T02:47:57;100417.28;;;8.72;52.16
55317;BME280;41178;48.956;8.130;2023-02-17T02:58:34;100387.16;;;8.79;53.36
55317;BME280;41178;48.956;8.130;2023-02-17T03:09:04;100343.22;;;7.95;54.56
55317;BME280;41178;48.956;8.130;2023-02-17T03:14:10;100353.25;;;8.45;54.29
55317;BME280;41178;48.956;8.130;2023-02-17T03:19:14;100348.69;;;8.38;54.56
55317;BME280;41178;48.956;8.130;2023-02-17T03:24:18;100361.53;;;8.87;54.45
55317;BME280;41178;48.956;8.130;2023-02-17T03:29:19;100348.78;;;8.28;54.58
55317;BME280;41178;48.956;8.130;2023-02-17T03:34:21;100357.03;;;9.30;53.70
55317;BME280;41178;48.956;8.130;2023-02-17T03:39:23;100351.25;;;9.00;54.57
55317;BME280;41178;48.956;8.130;2023-02-17T03:44:25;100334.25;;;8.22;56.25
55317;BME280;41178;48.956;8.130;2023-02-17T03:49:27;100334.22;;;9.01;55.34
55317;BME280;41178;48.956;8.130;2023-02-17T03:54:28;100323.53;;;8.93;55.24
55317;BME280;41178;48.956;8.130;2023-02-17T03:59:30;100312.75;;;7.98;56.93
55317;BME280;41178;48.956;8.130;2023-02-17T04:04:32;100318.97;;;8.59;55.90
55317;BME280;41178;48.956;8.130;2023-02-17T04:09:33;100307.72;;;8.39;56.55
55317;BME280;41178;48.956;8.130;2023-02-17T04:14:35;100297.56;;;9.11;55.04
55317;BME280;41178;48.956;8.130;2023-02-17T04:19:37;100310.00;;;8.94;55.62
55317;BME280;41178;48.956;8.130;2023-02-17T04:24:38;100290.19;;;7.74;58.06
55317;BME280;41178;48.956;8.130;2023-02-17T04:29:40;100329.09;;;8.21;57.03
55317;BME280;41178;48.956;8.130;2023-02-17T04:34:44;100317.66;;;8.89;56.38
55317;BME280;41178;48.956;8.130;2023-02-17T04:39:45;100321.91;;;9.67;54.26
55317;BME280;41178;48.956;8.130;2023-02-17T04:44:48;100316.03;;;9.55;54.67
55317;BME280;41178;48.956;8.130;2023-02-17T04:49:50;100318.03;;;9.53;54.68
55317;BME280;41178;48.956;8.130;2023-02-17T04:54:51;100301.13;;;9.28;55.13
55317;BME280;41178;48.956;8.130;2023-02-17T04:59:53;100334.56;;;9.06;56.35
55317;BME280;41178;48.956;8.130;2023-02-17T05:04:55;100333.56;;;9.58;54.86
55317;BME280;41178;48.956;8.130;2023-02-17T05:09:57;100318.09;;;8.76;56.51
55317;BME280;41178;48.956;8.130;2023-02-17T05:14:58;100325.28;;;8.84;56.73
55317;BME280;41178;48.956;8.130;2023-02-17T05:20:00;100326.13;;;9.19;56.06
55317;BME280;41178;48.956;8.130;2023-02-17T05:25:02;100331.03;;;9.56;54.70
55317;BME280;41178;48.956;8.130;2023-02-17T05:30:05;100344.41;;;9.56;54.92
55317;BME280;41178;48.956;8.130;2023-02-17T05:35:07;100360.78;;;9.70;54.69
55317;BME280;41178;48.956;8.130;2023-02-17T05:40:10;100349.13;;;9.12;54.74
55317;BME280;41178;48.956;8.130;2023-02-17T05:45:11;100342.28;;;8.04;57.25
55317;BME280;41178;48.956;8.130;2023-02-17T05:50:13;100366.72;;;9.31;55.17
55317;BME280;41178;48.956;8.130;2023-02-17T05:55:15;100372.28;;;8.77;56.87
55317;BME280;41178;48.956;8.130;2023-02-17T06:00:16;100375.47;;;9.57;54.42
55317;BME280;41178;48.956;8.130;2023-02-17T06:05:18;100376.31;;;9.58;54.72
55317;BME280;41178;48.956;8.130;2023-02-17T06:10:20;100383.81;;;9.54;54.67
55317;BME280;41178;48.956;8.130;2023-02-17T06:15:21;100395.53;;;9.53;54.88
55317;BME280;41178;48.956;8.130;2023-02-17T06:20:23;100374.81;;;9.05;55.95
55317;BME280;41178;48.956;8.130;2023-02-17T06:25:25;100391.66;;;9.48;55.45
55317;BME280;41178;48.956;8.130;2023-02-17T06:30:27;100397.66;;;10.01;54.24
55317;BME280;41178;48.956;8.130;2023-02-17T06:35:29;100392.38;;;9.74;54.69
55317;BME280;41178;48.956;8.130;2023-02-17T06:40:31;100420.38;;;10.21;53.80
55317;BME280;41178;48.956;8.130;2023-02-17T06:45:32;100398.13;;;9.88;54.70
55317;BME280;41178;48.956;8.130;2023-02-17T06:50:34;100416.16;;;10.02;54.17
55317;BME280;41178;48.956;8.130;2023-02-17T06:55:36;100387.75;;;7.85;58.38
55317;BME280;41178;48.956;8.130;2023-02-17T07:00:39;100396.22;;;8.87;56.93
55317;BME280;41178;48.956;8.130;2023-02-17T07:05:41;100422.41;;;9.17;55.78
55317;BME280;41178;48.956;8.130;2023-02-17T07:10:43;100415.25;;;9.61;55.25
55317;BME280;41178;48.956;8.130;2023-02-17T07:15:44;100438.56;;;9.93;55.23
55317;BME280;41178;48.956;8.130;2023-02-17T07:20:46;100432.28;;;9.68;55.17
55317;BME280;41178;48.956;8.130;2023-02-17T07:25:48;100441.09;;;9.52;55.76
55317;BME280;41178;48.956;8.130;2023-02-17T07:30:50;100425.53;;;9.13;56.29
55317;BME280;41178;48.956;8.130;2023-02-17T07:35:52;100452.53;;;9.70;56.70
55317;BME280;41178;48.956;8.130;2023-02-17T07:40:54;100439.88;;;9.46;56.87
55317;BME280;41178;48.956;8.130;2023-02-17T07:45:56;100445.34;;;9.28;57.48
55317;BME280;41178;48.956;8.130;2023-02-17T07:51:12;100460.72;;;9.77;57.46
55317;BME280;41178;48.956;8.130;2023-02-17T07:56:15;100465.56;;;9.39;58.25
55317;BME280;41178;48.956;8.130;2023-02-17T08:01:24;100474.50;;;9.56;57.62
55317;BME280;41178;48.956;8.130;2023-02-17T08:06:26;100466.41;;;9.05;58.54
55317;BME280;41178;48.956;8.130;2023-02-17T08:11:28;100467.09;;;9.42;57.90
55317;BME280;41178;48.956;8.130;2023-02-17T08:16:50;100515.66;;;10.22;56.01
55317;BME280;41178;48.956;8.130;2023-02-17T08:21:52;100495.19;;;9.88;56.74
55317;BME280;41178;48.956;8.130;2023-02-17T08:26:54;100460.16;;;9.22;58.58
55317;BME280;41178;48.956;8.130;2023-02-17T08:31:56;100469.72;;;9.76;58.32
55317;BME280;41178;48.956;8.130;2023-02-17T08:36:59;100479.91;;;8.59;61.31
55317;BME280;41178;48.956;8.130;2023-02-17T08:42:01;100452.25;;;9.13;60.48
55317;BME280;41178;48.956;8.130;2023-02-17T08:47:04;100458.50;;;8.51;61.87
55317;BME280;41178;48.956;8.130;2023-02-17T08:52:06;100493.19;;;7.87;64.10
55317;BME280;41178;48.956;8.130;2023-02-17T08:57:08;100487.59;;;7.81;64.67
55317;BME280;41178;48.956;8.130;2023-02-17T09:02:10;100509.38;;;8.04;64.35
55317;BME280;41178;48.956;8.130;2023-02-17T09:07:13;100499.69;;;7.85;64.43
55317;BME280;41178;48.956;8.130;2023-02-17T09:12:15;100491.09;;;7.81;63.78
55317;BME280;41178;48.956;8.130;2023-02-17T09:17:17;100477.25;;;8.41;61.37
55317;BME280;41178;48.956;8.130;2023-02-17T09:22:18;100533.34;;;8.67;62.25
55317;BME280;41178;48.956;8.130;2023-02-17T09:27:32;100511.34;;;8.74;60.77
55317;BME280;41178;48.956;8.130;2023-02-17T09:32:34;100541.84;;;8.35;61.32
55317;BME280;41178;48.956;8.130;2023-02-17T09:37:36;100547.03;;;6.96;63.48
55317;BME280;41178;48.956;8.130;2023-02-17T09:42:38;100529.19;;;8.19;61.28
55317;BME280;41178;48.956;8.130;2023-02-17T09:47:47;100538.19;;;7.90;61.40
55317;BME280;41178;48.956;8.130;2023-02-17T10:08:12;100553.22;;;7.91;60.85
55317;BME280;41178;48.956;8.130;2023-02-17T10:13:19;100608.78;;;9.84;57.99
55317;BME280;41178;48.956;8.130;2023-02-17T10:23:33;100598.59;;;9.62;58.22
55317;BME280;41178;48.956;8.130;2023-02-17T10:28:56;100590.13;;;9.66;58.31
55317;BME280;41178;48.956;8.130;2023-02-17T10:34:07;100599.09;;;10.34;57.74
55317;BME280;41178;48.956;8.130;2023-02-17T10:39:15;100603.13;;;10.30;58.04
55317;BME280;41178;48.956;8.130;2023-02-17T10:44:22;100548.78;;;9.52;59.51
55317;BME280;41178;48.956;8.130;2023-02-17T10:49:35;100537.69;;;9.65;58.87
55317;BME280;41178;48.956;8.130;2023-02-17T10:54:53;100605.44;;;11.09;57.33
55317;BME280;41178;48.956;8.130;2023-02-17T10:59:56;100534.53;;;10.12;59.15
55317;BME280;41178;48.956;8.130;2023-02-17T11:06:41;100566.34;;;8.84;62.62
55317;BME280;41178;48.956;8.130;2023-02-17T11:12:03;100579.69;;;9.55;60.60
55317;BME280;41178;48.956;8.130;2023-02-17T11:17:17;100583.63;;;10.03;59.78
55317;BME280;41178;48.956;8.130;2023-02-17T11:22:43;100560.97;;;9.47;60.63
55317;BME280;41178;48.956;8.130;2023-02-17T11:27:56;100543.16;;;9.03;62.07
55317;BME280;41178;48.956;8.130;2023-02-17T11:32:58;100543.09;;;9.21;60.94
55317;BME280;41178;48.956;8.130;2023-02-17T11:38:13;100540.22;;;9.14;61.60
55317;BME280;41178;48.956;8.130;2023-02-17T11:43:16;100577.53;;;10.19;59.16
55317;BME280;41178;48.956;8.130;2023-02-17T12:04:25;100551.38;;;9.62;59.79
55317;BME280;41178;48.956;8.130;2023-02-17T12:09:42;100586.19;;;10.13;59.29
55317;BME280;41178;48.956;8.130;2023-02-17T12:25:48;100621.22;;;10.52;58.50
55317;BME280;41178;48.956;8.130;2023-02-17T12:36:24;100582.50;;;10.06;59.26
55317;BME280;41178;48.956;8.130;2023-02-17T12:41:38;100586.59;;;10.51;58.92
55317;BME280;41178;48.956;8.130;2023-02-17T12:46:43;100558.44;;;10.22;59.55
55317;BME280;41178;48.956;8.130;2023-02-17T12:51:50;100575.91;;;10.59;59.17
55317;BME280;41178;48.956;8.130;2023-02-17T12:57:01;100546.72;;;10.07;59.55
55317;BME280;41178;48.956;8.130;2023-02-17T13:02:12;100591.03;;;11.01;58.30
55317;BME280;41178;48.956;8.130;2023-02-17T13:07:47;100561.88;;;10.65;59.35
55317;BME280;41178;48.956;8.130;2023-02-17T13:13:06;100585.34;;;11.04;58.24
55317;BME280;41178;48.956;8.130;2023-02-17T13:23:34;100570.09;;;11.30;57.25
55317;BME280;41178;48.956;8.130;2023-02-17T13:28:38;100558.72;;;10.95;58.06
55317;BME280;41178;48.956;8.130;2023-02-17T13:34:07;100552.06;;;10.82;57.92
55317;BME280;41178;48.956;8.130;2023-02-17T13:39:31;100548.19;;;11.10;58.23
55317;BME280;41178;48.956;8.130;2023-02-17T13:44:40;100572.41;;;11.49;57.38
55317;BME280;41178;48.956;8.130;2023-02-17T13:49:53;100604.59;;;12.05;56.35
55317;BME280;41178;48.956;8.130;2023-02-17T13:55:04;100534.44;;;11.21;57.86
55317;BME280;41178;48.956;8.130;2023-02-17T14:10:27;100555.63;;;11.63;56.52
55317;BME280;41178;48.956;8.130;2023-02-17T14:15:29;100481.75;;;10.39;58.36
55317;BME280;41178;48.956;8.130;2023-02-17T14:20:33;100555.91;;;11.85;56.35
55317;BME280;41178;48.956;8.130;2023-02-17T14:25:38;100504.63;;;11.24;56.97
55317;BME280;41178;48.956;8.130;2023-02-17T14:30:40;100515.25;;;11.65;56.69
55317;BME280;41178;48.956;8.130;2023-02-17T14:40:57;100539.00;;;12.08;56.19
55317;BME280;41178;48.956;8.130;2023-02-17T14:45:59;100522.78;;;11.70;56.43
55317;BME280;41178;48.956;8.130;2023-02-17T14:51:01;100523.25;;;11.73;56.68
55317;BME280;41178;48.956;8.130;2023-02-17T14:56:08;100542.00;;;12.13;56.41
55317;BME280;41178;48.956;8.130;2023-02-17T15:01:16;100523.59;;;12.10;56.04
55317;BME280;41178;48.956;8.130;2023-02-17T15:06:28;100514.38;;;12.35;55.43
55317;BME280;41178;48.956;8.130;2023-02-17T15:11:33;100504.38;;;12.21;55.36
55317;BME280;41178;48.956;8.130;2023-02-17T15:16:37;100489.25;;;12.05;55.87
55317;BME280;41178;48.956;8.130;2023-02-17T15:21:46;100530.31;;;12.60;54.55
55317;BME280;41178;48.956;8.130;2023-02-17T15:26:48;100486.25;;;12.23;54.64
55317;BME280;41178;48.956;8.130;2023-02-17T15:31:51;100461.94;;;11.62;55.97
55317;BME280;41178;48.956;8.130;2023-02-17T15:36:53;100440.72;;;11.52;56.70
55317;BME280;41178;48.956;8.130;2023-02-17T15:41:58;100500.78;;;12.37;55.94
55317;BME280;41178;48.956;8.130;2023-02-17T15:47:01;100482.59;;;11.93;56.01
55317;BME280;41178;48.956;8.130;2023-02-17T15:52:02;100501.25;;;11.86;55.86
55317;BME280;41178;48.956;8.130;2023-02-17T15:57:04;100497.66;;;12.25;55.45
55317;BME280;41178;48.956;8.130;2023-02-17T16:02:22;100499.38;;;11.95;55.05
55317;BME280;41178;48.956;8.130;2023-02-17T16:07:24;100461.47;;;11.58;56.48
55317;BME280;41178;48.956;8.130;2023-02-17T16:12:26;100505.47;;;12.35;55.30
55317;BME280;41178;48.956;8.130;2023-02-17T16:17:28;100469.28;;;11.76;55.38
55317;BME280;41178;48.956;8.130;2023-02-17T16:22:29;100516.75;;;12.30;54.86
55317;BME280;41178;48.956;8.130;2023-02-17T16:27:31;100530.94;;;12.47;54.87
55317;BME280;41178;48.956;8.130;2023-02-17T16:32:33;100493.44;;;11.76;55.66
55317;BME280;41178;48.956;8.130;2023-02-17T16:37:35;100547.88;;;12.71;54.52
55317;BME280;41178;48.956;8.130;2023-02-17T16:42:37;100425.31;;;11.06;56.71
55317;BME280;41178;48.956;8.130;2023-02-17T16:47:38;100511.41;;;12.53;54.74
55317;BME280;41178;48.956;8.130;2023-02-17T16:52:40;100483.88;;;12.05;54.99
55317;BME280;41178;48.956;8.130;2023-02-17T16:57:42;100466.84;;;11.50;55.86
55317;BME280;41178;48.956;8.130;2023-02-17T17:02:44;100537.41;;;12.76;54.66
55317;BME280;41178;48.956;8.130;2023-02-17T17:07:46;100486.03;;;11.78;55.28
55317;BME280;41178;48.956;8.130;2023-02-17T17:12:49;100494.63;;;12.28;54.87
55317;BME280;41178;48.956;8.130;2023-02-17T17:17:58;100493.69;;;11.90;56.21
55317;BME280;41178;48.956;8.130;2023-02-17T17:23:02;100522.53;;;12.42;54.93
55317;BME280;41178;48.956;8.130;2023-02-17T17:28:05;100526.34;;;12.25;55.53
55317;BME280;41178;48.956;8.130;2023-02-17T17:33:06;100487.66;;;11.40;57.10
55317;BME280;41178;48.956;8.130;2023-02-17T17:38:12;100505.56;;;11.56;57.29
55317;BME280;41178;48.956;8.130;2023-02-17T17:43:15;100502.13;;;11.22;57.51
55317;BME280;41178;48.956;8.130;2023-02-17T17:48:18;100505.00;;;10.96;57.80
55317;BME280;41178;48.956;8.130;2023-02-17T17:53:19;100530.75;;;11.22;57.12
55317;BME280;41178;48.956;8.130;2023-02-17T17:58:21;100546.97;;;11.37;57.20
55317;BME280;41178;48.956;8.130;2023-02-17T18:03:22;100541.66;;;11.20;57.58
55317;BME280;41178;48.956;8.130;2023-02-17T18:08:24;100503.31;;;10.62;58.61
55317;BME280;41178;48.956;8.130;2023-02-17T18:13:26;100582.41;;;11.80;56.83
55317;BME280;41178;48.956;8.130;2023-02-17T18:18:29;100571.72;;;11.63;57.37
55317;BME280;41178;48.956;8.130;2023-02-17T18:23:31;100566.16;;;11.57;57.70
55317;BME280;41178;48.956;8.130;2023-02-17T18:28:33;100547.84;;;11.04;58.11
55317;BME280;41178;48.956;8.130;2023-02-17T18:33:35;100554.50;;;11.41;57.33
55317;BME280;41178;48.956;8.130;2023-02-17T18:38:37;100552.25;;;10.13;59.91
55317;BME280;41178;48.956;8.130;2023-02-17T18:43:38;100564.09;;;10.86;58.65
55317;BME280;41178;48.956;8.130;2023-02-17T18:48:40;100573.72;;;11.61;57.50
55317;BME280;41178;48.956;8.130;2023-02-17T18:53:42;100587.47;;;11.50;57.69
55317;BME280;41178;48.956;8.130;2023-02-17T18:58:44;100560.59;;;10.94;58.03
55317;BME280;41178;48.956;8.130;2023-02-17T19:03:46;100609.00;;;11.90;56.12
55317;BME280;41178;48.956;8.130;2023-02-17T19:08:48;100584.63;;;11.52;56.68
55317;BME280;41178;48.956;8.130;2023-02-17T19:13:51;100566.88;;;10.52;58.32
55317;BME280;41178;48.956;8.130;2023-02-17T19:18:54;100620.78;;;11.64;57.04
55317;BME280;41178;48.956;8.130;2023-02-17T19:23:56;100609.78;;;11.18;58.35
55317;BME280;41178;48.956;8.130;2023-02-17T19:28:58;100609.94;;;11.41;58.03
55317;BME280;41178;48.956;8.130;2023-02-17T19:33:59;100592.19;;;11.23;58.33
55317;BME280;41178;48.956;8.130;2023-02-17T19:39:01;100603.06;;;11.30;58.43
55317;BME280;41178;48.956;8.130;2023-02-17T19:44:03;100602.09;;;11.23;58.01
55317;BME280;41178;48.956;8.130;2023-02-17T19:49:05;100606.38;;;11.49;57.36
55317;BME280;41178;48.956;8.130;2023-02-17T19:54:07;100641.19;;;11.90;57.09
55317;BME280;41178;48.956;8.130;2023-02-17T19:59:08;100645.72;;;11.81;56.19
55317;BME280;41178;48.956;8.130;2023-02-17T20:04:10;100653.38;;;12.09;55.53
55317;BME280;41178;48.956;8.130;2023-02-17T20:09:17;100644.28;;;11.37;57.14
55317;BME280;41178;48.956;8.130;2023-02-17T20:14:20;100647.44;;;11.74;56.37
55317;BME280;41178;48.956;8.130;2023-02-17T20:19:22;100656.25;;;11.91;55.77
55317;BME280;41178;48.956;8.130;2023-02-17T20:24:23;100625.03;;;11.25;56.92
55317;BME280;41178;48.956;8.130;2023-02-17T20:29:27;100649.59;;;11.45;56.52
55317;BME280;41178;48.956;8.130;2023-02-17T20:34:35;100646.75;;;11.72;56.29
55317;BME280;41178;48.956;8.130;2023-02-17T20:39:39;100641.13;;;11.25;57.22
55317;BME280;41178;48.956;8.130;2023-02-17T20:44:42;100637.91;;;11.38;57.56
55317;BME280;41178;48.956;8.130;2023-02-17T20:49:45;100635.16;;;11.88;55.73
55317;BME280;41178;48.956;8.130;2023-02-17T20:54:47;100647.56;;;11.89;55.88
55317;BME280;41178;48.956;8.130;2023-02-17T20:59:49;100680.97;;;12.26;54.90
55317;BME280;41178;48.956;8.130;2023-02-17T21:04:50;100697.19;;;12.49;54.26
55317;BME280;41178;48.956;8.130;2023-02-17T21:09:52;100639.75;;;11.46;55.54
55317;BME280;41178;48.956;8.130;2023-02-17T21:14:54;100663.84;;;11.71;55.06
55317;BME280;41178;48.956;8.130;2023-02-17T21:19:56;100679.03;;;12.03;54.93
55317;BME280;41178;48.956;8.130;2023-02-17T21:24:57;100720.94;;;12.60;53.83
55317;BME280;41178;48.956;8.130;2023-02-17T21:29:59;100663.34;;;11.67;55.05
55317;BME280;41178;48.956;8.130;2023-02-17T21:35:01;100688.19;;;12.25;54.75
55317;BME280;41178;48.956;8.130;2023-02-17T21:40:04;100616.31;;;10.91;55.94
55317;BME280;41178;48.956;8.130;2023-02-17T21:45:07;100654.31;;;11.68;55.68
55317;BME280;41178;48.956;8.130;2023-02-17T21:50:09;100690.09;;;12.08;54.28
55317;BME280;41178;48.956;8.130;2023-02-17T21:55:11;100693.47;;;12.42;53.94
55317;BME280;41178;48.956;8.130;2023-02-17T22:00:14;100595.16;;;10.46;57.32
55317;BME280;41178;48.956;8.130;2023-02-17T22:05:15;100692.69;;;12.72;53.66
55317;BME280;41178;48.956;8.130;2023-02-17T22:10:17;100650.53;;;12.02;55.39
55317;BME280;41178;48.956;8.130;2023-02-17T22:15:19;100558.84;;;9.85;58.91
55317;BME280;41178;48.956;8.130;2023-02-17T22:20:20;100598.03;;;11.43;55.58
55317;BME280;41178;48.956;8.130;2023-02-17T22:25:22;100624.50;;;11.30;56.20
55317;BME280;41178;48.956;8.130;2023-02-17T22:30:24;100643.78;;;11.09;57.51
55317;BME280;41178;48.956;8.130;2023-02-17T22:35:28;100652.28;;;11.45;57.19
55317;BME280;41178;48.956;8.130;2023-02-17T22:40:30;100608.75;;;10.19;59.90
55317;BME280;41178;48.956;8.130;2023-02-17T22:45:31;100601.34;;;9.44;61.58
55317;BME280;41178;48.956;8.130;2023-02-17T22:50:37;100638.84;;;10.63;59.86
55317;BME280;41178;48.956;8.130;2023-02-17T22:55:38;100622.19;;;11.02;58.53
55317;BME280;41178;48.956;8.130;2023-02-17T23:00:40;100594.28;;;10.29;59.50
55317;BME280;41178;48.956;8.130;2023-02-17T23:05:42;100617.63;;;11.69;55.79
55317;BME280;41178;48.956;8.130;2023-02-17T23:10:44;100602.25;;;11.30;56.53
55317;BME280;41178;48.956;8.130;2023-02-17T23:15:45;100621.50;;;10.84;58.92
55317;BME280;41178;48.956;8.130;2023-02-17T23:20:48;100606.38;;;11.73;56.35
55317;BME280;41178;48.956;8.130;2023-02-17T23:25:54;100616.44;;;11.71;56.02
55317;BME280;41178;48.956;8.130;2023-02-17T23:30:55;100644.22;;;12.26;54.31
55317;BME280;41178;48.956;8.130;2023-02-17T23:35:57;100607.44;;;11.39;56.43
55317;BME280;41178;48.956;8.130;2023-02-17T23:40:59;100627.88;;;10.99;57.13
55317;BME280;41178;48.956;8.130;2023-02-17T23:46:01;100576.63;;;10.10;58.57
55317;BME280;41178;48.956;8.130;2023-02-17T23:51:04;100608.88;;;11.75;56.90
55317;BME280;41178;48.956;8.130;2023-02-17T23:56:27;100617.53;;;12.02;55.11
